Terminal Aerodrome Forecast
Issued by NWS Melbourne, FL

Home | Current Version | Previous Version | Text Only | Print | Product List | Glossary On
Versions: 1 2 3 4 5 6 7 8 9 10 11 12 13 14 15
000
FTUS42 KMLB 011134
TAFDAB
TAF
KDAB 011134Z 0112/0212 19006KT P6SM SCT030 BKN080 OVC110
     FM011500 21012G17KT P6SM VCSH SCT020 BKN120
     FM011800 22010G15KT P6SM VCTS SCT030CB BKN060 BKN150
      TEMPO 0120/0123 4SM TSRA BKN025CB BKN035
     FM020000 20006KT P6SM FEW025 BKN150 BKN250=

USA.gov is the U.S. government's official web portal to all federal, state and local government web resources and services.